WZZ256 EPWA-EKCH
Flight info
| Callsign | WZZ256 |
|---|---|
| Flight time | N/A |
| Altitude | 36000 |
| Route | OLILA L621 GRUDA DCT LUSID DCT ELVIX L975 TIDVU |
| Aircraft | A321/M-SDE3FGHIRWY/LB1 |
Departure
| Time | N/A |
|---|---|
| Airport | Warsaw Chopin Airport (EPWA) |
Arrival
| Time | 2026-04-24 13:40 |
|---|---|
| Airport | Copenhagen Kastrup Airport (EKCH) |
| Time | Latitude | Longitude | Altitude | Speed | Heading |
|---|---|---|---|---|---|
| 2026-04-24 12:35 | 52.51256 | 20.76041 | 13953 ft | 321 kts | 317° |
| 2026-04-24 12:35 | 52.52645 | 20.73138 | 14617 ft | 325 kts | 309° |
| 2026-04-24 12:35 | 52.53956 | 20.70175 | 15254 ft | 327 kts | 309° |
| 2026-04-24 12:36 | 52.55300 | 20.67135 | 15900 ft | 329 kts | 309° |
| 2026-04-24 12:36 | 52.56651 | 20.64087 | 16537 ft | 331 kts | 309° |
| 2026-04-24 12:36 | 52.57989 | 20.61070 | 17139 ft | 333 kts | 309° |
| 2026-04-24 12:36 | 52.59354 | 20.57988 | 17716 ft | 335 kts | 309° |
| 2026-04-24 12:37 | 52.60729 | 20.54887 | 18321 ft | 337 kts | 309° |
| 2026-04-24 12:37 | 52.62109 | 20.51769 | 18914 ft | 338 kts | 309° |
| 2026-04-24 12:37 | 52.63479 | 20.48669 | 19484 ft | 340 kts | 309° |
| 2026-04-24 12:37 | 52.64869 | 20.45518 | 20059 ft | 341 kts | 309° |
| 2026-04-24 12:38 | 52.66266 | 20.42346 | 20597 ft | 343 kts | 309° |
| 2026-04-24 12:38 | 52.67655 | 20.39189 | 21133 ft | 345 kts | 309° |
| 2026-04-24 12:38 | 52.69072 | 20.35965 | 21692 ft | 346 kts | 309° |
| 2026-04-24 12:39 | 52.73718 | 20.26823 | 23259 ft | 350 kts | 313° |
| 2026-04-24 12:39 | 52.75330 | 20.23858 | 23746 ft | 351 kts | 313° |
| 2026-04-24 12:39 | 52.76971 | 20.20835 | 24235 ft | 353 kts | 313° |
| 2026-04-24 12:40 | 52.78593 | 20.17843 | 24700 ft | 355 kts | 313° |
| 2026-04-24 12:40 | 52.80246 | 20.14791 | 25159 ft | 357 kts | 313° |
| 2026-04-24 12:40 | 52.81897 | 20.11686 | 25567 ft | 361 kts | 312° |
| 2026-04-24 12:40 | 52.83505 | 20.08520 | 25843 ft | 367 kts | 311° |
| 2026-04-24 12:41 | 52.85143 | 20.05260 | 26225 ft | 370 kts | 311° |
| 2026-04-24 12:41 | 52.86791 | 20.01976 | 26657 ft | 371 kts | 311° |
| 2026-04-24 12:41 | 52.88424 | 19.98721 | 27071 ft | 373 kts | 311° |
| 2026-04-24 12:41 | 52.90085 | 19.95413 | 27475 ft | 375 kts | 311° |
| 2026-04-24 12:42 | 52.91755 | 19.92083 | 27849 ft | 377 kts | 311° |
| 2026-04-24 12:42 | 52.93421 | 19.88761 | 28205 ft | 379 kts | 311° |
| 2026-04-24 12:42 | 52.95119 | 19.85371 | 28560 ft | 381 kts | 311° |
| 2026-04-24 12:42 | 52.96793 | 19.82026 | 28923 ft | 383 kts | 311° |
| 2026-04-24 12:43 | 52.98500 | 19.78607 | 29274 ft | 384 kts | 311° |
| 2026-04-24 12:43 | 53.00208 | 19.75185 | 29626 ft | 386 kts | 311° |
| 2026-04-24 12:43 | 53.01897 | 19.71794 | 29951 ft | 387 kts | 311° |
| 2026-04-24 12:43 | 53.03621 | 19.68328 | 30268 ft | 389 kts | 311° |
| 2026-04-24 12:44 | 53.05362 | 19.64860 | 30566 ft | 390 kts | 312° |
| 2026-04-24 12:44 | 53.07166 | 19.61560 | 30913 ft | 390 kts | 314° |
| 2026-04-24 12:44 | 53.09050 | 19.58322 | 31323 ft | 388 kts | 315° |
| 2026-04-24 12:44 | 53.10929 | 19.55118 | 31725 ft | 386 kts | 315° |
| 2026-04-24 12:45 | 53.12775 | 19.51977 | 32113 ft | 385 kts | 315° |
| 2026-04-24 12:45 | 53.14652 | 19.48778 | 32510 ft | 383 kts | 315° |
| 2026-04-24 12:45 | 53.16483 | 19.45648 | 32878 ft | 382 kts | 315° |
| 2026-04-24 12:45 | 53.18340 | 19.42471 | 33252 ft | 380 kts | 315° |
| 2026-04-24 12:46 | 53.20179 | 19.39319 | 33604 ft | 379 kts | 315° |
| 2026-04-24 12:46 | 53.22015 | 19.36165 | 33945 ft | 378 kts | 315° |
| 2026-04-24 12:46 | 53.23791 | 19.32903 | 34287 ft | 377 kts | 312° |
| 2026-04-24 12:46 | 53.25507 | 19.29633 | 34573 ft | 377 kts | 312° |
| 2026-04-24 12:47 | 53.27235 | 19.26323 | 34807 ft | 378 kts | 312° |
| 2026-04-24 12:47 | 53.28904 | 19.23125 | 35021 ft | 379 kts | 312° |
| 2026-04-24 12:47 | 53.30638 | 19.19788 | 35213 ft | 380 kts | 312° |
| 2026-04-24 12:47 | 53.32386 | 19.16427 | 35408 ft | 381 kts | 312° |
| 2026-04-24 12:48 | 53.34119 | 19.13087 | 35616 ft | 382 kts | 312° |
| 2026-04-24 12:48 | 53.35862 | 19.09728 | 35824 ft | 382 kts | 312° |
| 2026-04-24 12:48 | 53.37596 | 19.06374 | 35928 ft | 384 kts | 312° |
| 2026-04-24 12:49 | 53.41093 | 18.99605 | 35932 ft | 384 kts | 312° |
| 2026-04-24 12:49 | 53.44564 | 18.92867 | 35938 ft | 384 kts | 312° |
| 2026-04-24 12:50 | 53.48048 | 18.86081 | 35936 ft | 384 kts | 312° |
| 2026-04-24 12:50 | 53.51508 | 18.79269 | 35934 ft | 384 kts | 310° |
| 2026-04-24 12:51 | 53.54699 | 18.72108 | 35932 ft | 385 kts | 308° |
| 2026-04-24 12:51 | 53.57827 | 18.64797 | 35935 ft | 384 kts | 307° |
| 2026-04-24 12:52 | 53.60921 | 18.57535 | 35938 ft | 384 kts | 307° |
| 2026-04-24 12:52 | 53.64013 | 18.50256 | 35938 ft | 384 kts | 307° |
| 2026-04-24 12:53 | 53.67116 | 18.42931 | 35942 ft | 384 kts | 307° |
| 2026-04-24 12:53 | 53.70219 | 18.35587 | 35942 ft | 384 kts | 307° |
| 2026-04-24 12:54 | 53.73257 | 18.28369 | 35942 ft | 384 kts | 307° |
| 2026-04-24 12:54 | 53.76349 | 18.21010 | 35946 ft | 384 kts | 307° |
| 2026-04-24 12:55 | 53.79426 | 18.13660 | 35946 ft | 384 kts | 307° |
| 2026-04-24 12:55 | 53.82485 | 18.06332 | 35946 ft | 383 kts | 307° |
| 2026-04-24 12:56 | 53.85559 | 17.98947 | 35948 ft | 383 kts | 307° |
| 2026-04-24 12:56 | 53.88613 | 17.91590 | 35950 ft | 383 kts | 307° |
| 2026-04-24 12:57 | 53.91665 | 17.84217 | 35951 ft | 382 kts | 306° |
| 2026-04-24 12:57 | 53.94696 | 17.76870 | 35951 ft | 382 kts | 306° |
| 2026-04-24 12:58 | 53.97742 | 17.69462 | 35953 ft | 382 kts | 306° |
| 2026-04-24 12:58 | 54.00771 | 17.62082 | 35955 ft | 382 kts | 306° |
| 2026-04-24 12:59 | 54.03785 | 17.54710 | 35958 ft | 382 kts | 306° |
| 2026-04-24 12:59 | 54.06790 | 17.47342 | 35961 ft | 382 kts | 306° |
| 2026-04-24 13:00 | 54.09793 | 17.39955 | 35961 ft | 382 kts | 306° |
| 2026-04-24 13:00 | 54.12813 | 17.32503 | 35962 ft | 381 kts | 305° |
| 2026-04-24 13:01 | 54.15812 | 17.25085 | 35962 ft | 381 kts | 305° |
| 2026-04-24 13:01 | 54.18823 | 17.17611 | 35965 ft | 381 kts | 305° |
| 2026-04-24 13:02 | 54.21811 | 17.10173 | 35968 ft | 381 kts | 305° |
| 2026-04-24 13:02 | 54.24797 | 17.02719 | 35969 ft | 381 kts | 305° |
| 2026-04-24 13:03 | 54.27771 | 16.95276 | 35965 ft | 381 kts | 305° |
| 2026-04-24 13:03 | 54.30764 | 16.87756 | 35962 ft | 381 kts | 305° |
| 2026-04-24 13:04 | 54.33727 | 16.80290 | 35971 ft | 381 kts | 305° |
| 2026-04-24 13:04 | 54.36692 | 16.72800 | 35973 ft | 381 kts | 305° |
| 2026-04-24 13:05 | 54.39655 | 16.65291 | 35972 ft | 382 kts | 305° |
| 2026-04-24 13:05 | 54.42636 | 16.57710 | 35974 ft | 382 kts | 305° |
| 2026-04-24 13:06 | 54.45587 | 16.50191 | 35976 ft | 382 kts | 305° |
| 2026-04-24 13:06 | 54.48534 | 16.42653 | 35990 ft | 382 kts | 304° |
| 2026-04-24 13:07 | 54.51492 | 16.35062 | 35988 ft | 382 kts | 305° |
| 2026-04-24 13:07 | 54.54424 | 16.27520 | 35988 ft | 382 kts | 304° |
| 2026-04-24 13:08 | 54.57375 | 16.19900 | 35994 ft | 382 kts | 304° |
| 2026-04-24 13:08 | 54.60300 | 16.12331 | 35992 ft | 382 kts | 304° |
| 2026-04-24 13:09 | 54.64716 | 16.00857 | 36000 ft | 383 kts | 304° |
| 2026-04-24 13:09 | 54.67630 | 15.93252 | 36001 ft | 383 kts | 304° |
| 2026-04-24 13:10 | 54.70540 | 15.85638 | 36007 ft | 382 kts | 304° |
| 2026-04-24 13:10 | 54.73468 | 15.77950 | 36007 ft | 382 kts | 304° |
| 2026-04-24 13:11 | 54.76369 | 15.70313 | 36009 ft | 382 kts | 304° |
| 2026-04-24 13:11 | 54.79268 | 15.62654 | 36007 ft | 382 kts | 304° |
| 2026-04-24 13:12 | 54.82180 | 15.54936 | 36009 ft | 382 kts | 304° |
| 2026-04-24 13:12 | 54.85066 | 15.47265 | 36009 ft | 382 kts | 304° |
| 2026-04-24 13:13 | 54.87938 | 15.39597 | 36008 ft | 382 kts | 304° |
| 2026-04-24 13:13 | 54.90839 | 15.31836 | 36011 ft | 381 kts | 303° |
| 2026-04-24 13:14 | 54.92318 | 15.28098 | 35819 ft | 380 kts | 305° |
| 2026-04-24 13:14 | 54.93882 | 15.24356 | 35076 ft | 387 kts | 306° |
| 2026-04-24 13:14 | 54.95477 | 15.20575 | 34146 ft | 393 kts | 306° |
| 2026-04-24 13:14 | 54.97086 | 15.16755 | 33299 ft | 395 kts | 305° |
| 2026-04-24 13:15 | 54.98709 | 15.12895 | 32443 ft | 397 kts | 306° |
| 2026-04-24 13:15 | 55.00337 | 15.09013 | 31521 ft | 400 kts | 306° |
| 2026-04-24 13:15 | 55.01957 | 15.05141 | 30637 ft | 402 kts | 306° |
| 2026-04-24 13:15 | 55.03565 | 15.01184 | 29903 ft | 399 kts | 302° |
| 2026-04-24 13:16 | 55.04819 | 14.96903 | 29219 ft | 397 kts | 296° |
| 2026-04-24 13:16 | 55.05951 | 14.92615 | 28499 ft | 395 kts | 295° |
| 2026-04-24 13:16 | 55.07082 | 14.88280 | 27850 ft | 391 kts | 295° |
| 2026-04-24 13:16 | 55.08198 | 14.83998 | 27253 ft | 386 kts | 296° |
| 2026-04-24 13:17 | 55.09291 | 14.79823 | 26652 ft | 382 kts | 296° |
| 2026-04-24 13:17 | 55.10399 | 14.75596 | 26032 ft | 378 kts | 296° |
| 2026-04-24 13:17 | 55.11472 | 14.71508 | 25470 ft | 374 kts | 296° |
| 2026-04-24 13:17 | 55.12549 | 14.67400 | 24891 ft | 371 kts | 296° |
| 2026-04-24 13:18 | 55.13609 | 14.63357 | 24334 ft | 368 kts | 296° |
| 2026-04-24 13:18 | 55.14674 | 14.59289 | 23779 ft | 365 kts | 296° |
| 2026-04-24 13:18 | 55.15710 | 14.55325 | 23256 ft | 362 kts | 296° |
| 2026-04-24 13:18 | 55.16749 | 14.51339 | 22707 ft | 359 kts | 296° |
| 2026-04-24 13:19 | 55.17778 | 14.47387 | 22194 ft | 356 kts | 296° |
| 2026-04-24 13:19 | 55.18784 | 14.43519 | 21685 ft | 353 kts | 296° |
| 2026-04-24 13:19 | 55.19795 | 14.39623 | 21165 ft | 351 kts | 296° |
| 2026-04-24 13:19 | 55.20799 | 14.35754 | 20674 ft | 348 kts | 297° |
| 2026-04-24 13:20 | 55.21783 | 14.31947 | 20177 ft | 346 kts | 296° |
| 2026-04-24 13:20 | 55.22683 | 14.28464 | 19729 ft | 345 kts | 296° |
| 2026-04-24 13:20 | 55.23737 | 14.24382 | 19162 ft | 343 kts | 296° |
| 2026-04-24 13:20 | 55.24702 | 14.20641 | 18704 ft | 341 kts | 296° |
| 2026-04-24 13:21 | 55.25672 | 14.16864 | 18202 ft | 340 kts | 296° |
| 2026-04-24 13:21 | 55.26648 | 14.13063 | 17715 ft | 338 kts | 296° |
| 2026-04-24 13:21 | 55.27597 | 14.09358 | 17267 ft | 336 kts | 296° |
| 2026-04-24 13:21 | 55.28557 | 14.05610 | 16776 ft | 336 kts | 296° |
| 2026-04-24 13:22 | 55.29497 | 14.01930 | 16244 ft | 335 kts | 296° |
| 2026-04-24 13:22 | 55.30448 | 13.98207 | 15718 ft | 334 kts | 296° |
| 2026-04-24 13:22 | 55.31393 | 13.94495 | 15279 ft | 332 kts | 296° |
| 2026-04-24 13:22 | 55.32330 | 13.90801 | 14818 ft | 331 kts | 296° |
| 2026-04-24 13:23 | 55.33251 | 13.87169 | 14378 ft | 330 kts | 296° |
| 2026-04-24 13:23 | 55.34185 | 13.83482 | 13868 ft | 329 kts | 296° |
| 2026-04-24 13:23 | 55.35112 | 13.79815 | 13382 ft | 328 kts | 296° |
| 2026-04-24 13:23 | 55.36019 | 13.76217 | 12954 ft | 326 kts | 296° |
| 2026-04-24 13:24 | 55.36932 | 13.72596 | 12463 ft | 323 kts | 296° |
| 2026-04-24 13:24 | 55.37833 | 13.69008 | 12067 ft | 320 kts | 296° |
| 2026-04-24 13:24 | 55.38721 | 13.65474 | 11588 ft | 317 kts | 296° |
| 2026-04-24 13:24 | 55.39609 | 13.61933 | 11140 ft | 314 kts | 296° |
| 2026-04-24 13:25 | 55.40472 | 13.58485 | 10746 ft | 311 kts | 297° |
| 2026-04-24 13:25 | 55.41261 | 13.54966 | 10418 ft | 305 kts | 292° |
| 2026-04-24 13:25 | 55.41891 | 13.51467 | 10277 ft | 293 kts | 290° |
| 2026-04-24 13:25 | 55.42462 | 13.48156 | 10090 ft | 280 kts | 290° |
| 2026-04-24 13:26 | 55.43014 | 13.44938 | 9979 ft | 268 kts | 290° |
| 2026-04-24 13:26 | 55.43553 | 13.41804 | 9610 ft | 267 kts | 290° |
| 2026-04-24 13:26 | 55.44084 | 13.38722 | 9260 ft | 265 kts | 291° |
| 2026-04-24 13:26 | 55.44619 | 13.35618 | 8908 ft | 264 kts | 291° |
| 2026-04-24 13:27 | 55.45143 | 13.32562 | 8570 ft | 262 kts | 290° |
| 2026-04-24 13:27 | 55.45643 | 13.29465 | 8200 ft | 263 kts | 284° |
| 2026-04-24 13:27 | 55.45600 | 13.26252 | 7888 ft | 271 kts | 260° |
| 2026-04-24 13:27 | 55.44898 | 13.23099 | 7943 ft | 279 kts | 250° |
| 2026-04-24 13:28 | 55.44065 | 13.19979 | 7970 ft | 281 kts | 249° |
| 2026-04-24 13:28 | 55.43235 | 13.16907 | 7966 ft | 281 kts | 250° |
| 2026-04-24 13:28 | 55.42400 | 13.13785 | 8022 ft | 281 kts | 250° |
| 2026-04-24 13:28 | 55.41570 | 13.10661 | 8022 ft | 281 kts | 250° |
| 2026-04-24 13:29 | 55.40756 | 13.07580 | 8027 ft | 281 kts | 250° |
| 2026-04-24 13:29 | 55.39929 | 13.04457 | 8057 ft | 281 kts | 250° |
| 2026-04-24 13:29 | 55.38908 | 13.01495 | 7938 ft | 288 kts | 235° |
| 2026-04-24 13:29 | 55.37426 | 12.99141 | 7539 ft | 294 kts | 220° |
| 2026-04-24 13:30 | 55.35907 | 12.96819 | 7346 ft | 282 kts | 239° |
| 2026-04-24 13:30 | 55.35251 | 12.93707 | 7219 ft | 268 kts | 273° |
| 2026-04-24 13:30 | 55.35646 | 12.90659 | 7046 ft | 258 kts | 300° |
| 2026-04-24 13:30 | 55.36491 | 12.87882 | 6742 ft | 256 kts | 301° |
| 2026-04-24 13:31 | 55.37304 | 12.85104 | 6426 ft | 255 kts | 300° |
| 2026-04-24 13:31 | 55.38055 | 12.82334 | 6120 ft | 254 kts | 298° |
| 2026-04-24 13:31 | 55.38775 | 12.79503 | 5786 ft | 252 kts | 297° |
| 2026-04-24 13:31 | 55.39464 | 12.76681 | 5448 ft | 250 kts | 296° |
| 2026-04-24 13:32 | 55.40122 | 12.73917 | 5113 ft | 247 kts | 296° |
| 2026-04-24 13:32 | 55.40776 | 12.71132 | 4777 ft | 245 kts | 296° |
| 2026-04-24 13:32 | 55.41419 | 12.68374 | 4449 ft | 242 kts | 296° |
| 2026-04-24 13:32 | 55.42051 | 12.65663 | 4119 ft | 240 kts | 295° |
| 2026-04-24 13:33 | 55.42680 | 12.62953 | 3786 ft | 238 kts | 295° |
| 2026-04-24 13:33 | 55.43167 | 12.60174 | 3437 ft | 241 kts | 278° |
| 2026-04-24 13:33 | 55.42890 | 12.57300 | 3111 ft | 247 kts | 250° |
| 2026-04-24 13:33 | 55.41858 | 12.54903 | 2984 ft | 244 kts | 226° |
| 2026-04-24 13:34 | 55.40604 | 12.53011 | 2973 ft | 230 kts | 227° |
| 2026-04-24 13:34 | 55.39687 | 12.50911 | 2933 ft | 205 kts | 257° |
| 2026-04-24 13:34 | 55.39632 | 12.48638 | 2933 ft | 180 kts | 294° |
| 2026-04-24 13:34 | 55.40377 | 12.47002 | 2990 ft | 171 kts | 332° |
| 2026-04-24 13:35 | 55.41532 | 12.46468 | 3057 ft | 173 kts | 350° |
| 2026-04-24 13:35 | 55.42722 | 12.46266 | 2898 ft | 173 kts | 353° |
| 2026-04-24 13:35 | 55.43920 | 12.46106 | 2690 ft | 172 kts | 353° |
| 2026-04-24 13:35 | 55.45115 | 12.45952 | 2483 ft | 172 kts | 353° |
| 2026-04-24 13:36 | 55.46287 | 12.45818 | 2416 ft | 172 kts | 357° |
| 2026-04-24 13:36 | 55.47487 | 12.46087 | 2525 ft | 176 kts | 11° |
| 2026-04-24 13:36 | 55.48618 | 12.46885 | 2646 ft | 169 kts | 22° |
| 2026-04-24 13:36 | 55.49600 | 12.47827 | 2545 ft | 151 kts | 23° |
| 2026-04-24 13:37 | 55.50490 | 12.48635 | 2255 ft | 142 kts | 21° |
| 2026-04-24 13:37 | 55.51342 | 12.49439 | 1946 ft | 136 kts | 25° |
| 2026-04-24 13:37 | 55.52124 | 12.50315 | 1637 ft | 132 kts | 27° |
| 2026-04-24 13:37 | 55.52884 | 12.51217 | 1418 ft | 132 kts | 28° |
| 2026-04-24 13:38 | 55.53644 | 12.52151 | 1269 ft | 134 kts | 32° |
| 2026-04-24 13:38 | 55.54386 | 12.53146 | 1173 ft | 134 kts | 33° |
| 2026-04-24 13:38 | 55.55104 | 12.54158 | 1084 ft | 133 kts | 34° |
| 2026-04-24 13:38 | 55.55840 | 12.55159 | 899 ft | 133 kts | 35° |
| 2026-04-24 13:39 | 55.56540 | 12.56236 | 730 ft | 134 kts | 38° |
| 2026-04-24 13:39 | 55.57235 | 12.57312 | 568 ft | 134 kts | 38° |
| 2026-04-24 13:39 | 55.57939 | 12.58396 | 388 ft | 134 kts | 38° |
| 2026-04-24 13:39 | 55.58640 | 12.59458 | 213 ft | 132 kts | 40° |
| 2026-04-24 13:40 | 55.59322 | 12.60518 | 28 ft | 131 kts | 39° |
| 2026-04-24 13:40 | 55.59916 | 12.61431 | 21 ft | 90 kts | 40° |
| 2026-04-24 13:40 | 55.60257 | 12.61956 | 26 ft | 41 kts | 41° |
| 2026-04-24 13:40 | 55.60405 | 12.62185 | 26 ft | 25 kts | 39° |
| 2026-04-24 13:41 | 55.60558 | 12.62318 | 24 ft | 24 kts | 17° |
| 2026-04-24 13:41 | 55.60686 | 12.62370 | 23 ft | 12 kts | 12° |
| 2026-04-24 13:41 | 55.60748 | 12.62394 | 22 ft | 6 kts | 15° |
| 2026-04-24 13:41 | 55.60797 | 12.62427 | 21 ft | 8 kts | 28° |
| 2026-04-24 13:42 | 55.60846 | 12.62489 | 21 ft | 9 kts | 41° |
| 2026-04-24 13:42 | 55.60915 | 12.62594 | 21 ft | 16 kts | 40° |
| 2026-04-24 13:42 | 55.61018 | 12.62754 | 20 ft | 20 kts | 41° |
| 2026-04-24 13:42 | 55.61128 | 12.62924 | 19 ft | 21 kts | 41° |
| 2026-04-24 13:43 | 55.61238 | 12.63095 | 19 ft | 20 kts | 41° |
| 2026-04-24 13:43 | 55.61344 | 12.63256 | 21 ft | 19 kts | 41° |
| 2026-04-24 13:43 | 55.61441 | 12.63407 | 22 ft | 18 kts | 41° |
| 2026-04-24 13:43 | 55.61521 | 12.63530 | 23 ft | 13 kts | 40° |
| 2026-04-24 13:44 | 55.61575 | 12.63610 | 23 ft | 10 kts | 40° |
| 2026-04-24 13:44 | 55.61631 | 12.63699 | 23 ft | 11 kts | 42° |
| 2026-04-24 13:44 | 55.61693 | 12.63795 | 23 ft | 12 kts | 41° |
| 2026-04-24 13:44 | 55.61758 | 12.63894 | 24 ft | 13 kts | 40° |
| 2026-04-24 13:45 | 55.61829 | 12.64004 | 24 ft | 14 kts | 42° |
| 2026-04-24 13:45 | 55.61920 | 12.64115 | 25 ft | 16 kts | 23° |
| 2026-04-24 13:45 | 55.62028 | 12.64203 | 26 ft | 18 kts | 26° |
| 2026-04-24 13:45 | 55.62151 | 12.64303 | 25 ft | 20 kts | 25° |
| 2026-04-24 13:46 | 55.62244 | 12.64385 | 25 ft | 7 kts | 31° |
| 2026-04-24 13:46 | 55.62276 | 12.64470 | 25 ft | 11 kts | 72° |
| 2026-04-24 13:46 | 55.62303 | 12.64611 | 26 ft | 12 kts | 71° |
| 2026-04-24 13:46 | 55.62338 | 12.64752 | 26 ft | 13 kts | 65° |
| 2026-04-24 13:47 | 55.62340 | 12.64903 | 26 ft | 13 kts | 120° |
| 2026-04-24 13:47 | 55.62291 | 12.65046 | 26 ft | 14 kts | 123° |
| 2026-04-24 13:47 | 55.62304 | 12.65189 | 26 ft | 13 kts | 30° |
| 2026-04-24 13:47 | 55.62391 | 12.65202 | 26 ft | 9 kts | 356° |
| 2026-04-24 13:48 | 55.62438 | 12.65262 | 26 ft | 9 kts | 81° |
| 2026-04-24 13:48 | 55.62441 | 12.65391 | 26 ft | 11 kts | 89° |
| 2026-04-24 13:48 | 55.62443 | 12.65490 | 26 ft | 3 kts | 78° |
| 2026-04-24 13:48 | 55.62463 | 12.65528 | 26 ft | 4 kts | 26° |
| 2026-04-24 13:49 | 55.62498 | 12.65555 | 26 ft | 3 kts | 23° |
| 2026-04-24 13:49 | 55.62513 | 12.65566 | 26 ft | 0 kts | 22° |
| 2026-04-24 13:49 | 55.62515 | 12.65567 | 26 ft | 0 kts | 22° |